createdAt,value
2018-04-23T00:00:17.701Z,43.20
2018-04-23T00:00:49.350Z,43.30
2018-04-23T00:01:20.993Z,43.70
2018-04-23T00:01:52.655Z,43.60
2018-04-23T00:02:24.294Z,43.70
2018-04-23T00:02:55.937Z,43.80
2018-04-23T00:03:27.557Z,43.80
2018-04-23T00:03:59.263Z,43.80
2018-04-23T00:04:30.885Z,44.00
2018-04-23T00:05:02.577Z,44.30
2018-04-23T00:05:34.217Z,44.30
2018-04-23T00:06:05.839Z,44.40
2018-04-23T00:06:37.498Z,44.40
2018-04-23T00:07:09.113Z,44.20
2018-04-23T00:07:40.766Z,44.30
2018-04-23T00:08:12.399Z,44.60
2018-04-23T00:08:44.008Z,44.70
2018-04-23T00:09:15.643Z,44.90
2018-04-23T00:09:47.286Z,44.90
2018-04-23T00:10:18.925Z,45.20
2018-04-23T00:10:50.540Z,45.30
2018-04-23T00:11:22.190Z,45.20
2018-04-23T00:11:53.845Z,44.90
2018-04-23T00:12:25.479Z,45.00
2018-04-23T00:12:57.148Z,45.00
2018-04-23T00:13:28.789Z,45.20
2018-04-23T00:14:00.393Z,45.20
2018-04-23T00:14:32.335Z,45.20
2018-04-23T00:15:03.965Z,45.20
2018-04-23T00:15:35.618Z,45.20
2018-04-23T00:16:07.249Z,45.50
2018-04-23T00:16:38.907Z,46.10
2018-04-23T00:17:10.538Z,46.20
2018-04-23T00:17:42.194Z,46.00
2018-04-23T00:18:13.832Z,46.00
2018-04-23T00:18:45.479Z,46.00
2018-04-23T00:19:17.126Z,46.00
2018-04-23T00:19:48.737Z,46.10
2018-04-23T00:20:20.376Z,46.20
2018-04-23T00:20:51.991Z,46.10
2018-04-23T00:21:23.624Z,46.00
2018-04-23T00:21:55.267Z,45.90
2018-04-23T00:22:26.910Z,45.80
2018-04-23T00:22:58.545Z,45.50
2018-04-23T00:23:30.183Z,45.30
2018-04-23T00:24:01.842Z,45.20
2018-04-23T00:24:33.451Z,44.80
2018-04-23T00:25:05.072Z,44.50
2018-04-23T00:25:36.742Z,44.30
2018-04-23T00:26:08.393Z,44.30
2018-04-23T00:26:40.054Z,43.90
2018-04-23T00:27:11.664Z,43.60
2018-04-23T00:27:43.333Z,43.40
2018-04-23T00:28:14.965Z,43.50
2018-04-23T00:28:47.016Z,43.50
2018-04-23T00:29:18.660Z,43.30
2018-04-23T00:29:50.284Z,43.00
2018-04-23T00:30:21.900Z,42.90
2018-04-23T00:30:53.527Z,42.40
2018-04-23T00:31:25.143Z,42.70
2018-04-23T00:31:56.783Z,42.40
2018-04-23T00:32:28.431Z,42.30
2018-04-23T00:33:00.067Z,42.00
2018-04-23T00:33:31.721Z,41.90
2018-04-23T00:34:03.371Z,41.90
2018-04-23T00:34:35.013Z,41.80
2018-04-23T00:35:06.653Z,41.70
2018-04-23T00:35:38.283Z,41.50
2018-04-23T00:36:09.913Z,41.40
2018-04-23T00:36:41.533Z,41.40
2018-04-23T00:37:13.159Z,41.40
2018-04-23T00:37:44.773Z,41.20
2018-04-23T00:38:16.398Z,41.10
2018-04-23T00:38:48.042Z,41.00
2018-04-23T00:39:19.681Z,40.80
2018-04-23T00:39:51.276Z,40.50
2018-04-23T00:40:22.913Z,40.30
2018-04-23T00:40:54.550Z,40.20
2018-04-23T00:41:26.197Z,40.00
2018-04-23T00:41:57.843Z,39.80
2018-04-23T00:42:29.464Z,40.00
2018-04-23T00:43:01.094Z,39.80
2018-04-23T00:43:32.731Z,39.60
2018-04-23T00:44:04.379Z,39.60
2018-04-23T00:44:36.026Z,39.50
2018-04-23T00:45:07.669Z,39.30
2018-04-23T00:45:39.280Z,39.10
2018-04-23T00:46:10.922Z,39.20
2018-04-23T00:46:42.553Z,38.80
2018-04-23T00:47:14.177Z,39.60
2018-04-23T00:47:45.800Z,39.60
2018-04-23T00:48:17.429Z,39.20
2018-04-23T00:48:49.074Z,39.40
2018-04-23T00:49:20.741Z,39.20
2018-04-23T00:49:52.427Z,39.20
2018-04-23T00:50:24.079Z,39.10
2018-04-23T00:50:55.714Z,39.10
2018-04-23T00:51:27.365Z,39.20
2018-04-23T00:51:59.031Z,39.30
2018-04-23T00:52:30.680Z,39.20
2018-04-23T00:53:20.949Z,39.10
2018-04-23T00:53:52.539Z,39.00
2018-04-23T00:54:24.181Z,38.90
2018-04-23T00:54:55.842Z,38.70
2018-04-23T00:55:27.457Z,38.70
2018-04-23T00:55:59.095Z,38.80
2018-04-23T00:56:30.707Z,38.90
2018-04-23T00:57:02.325Z,38.70
2018-04-23T00:57:33.957Z,38.60
2018-04-23T00:58:05.601Z,38.50
2018-04-23T00:58:37.248Z,38.10
2018-04-23T00:59:08.934Z,38.70
2018-04-23T00:59:40.629Z,38.70
2018-04-23T01:00:12.285Z,38.50
2018-04-23T01:00:43.951Z,38.40
2018-04-23T01:01:15.581Z,38.40
2018-04-23T01:01:47.203Z,38.10
2018-04-23T01:02:18.856Z,38.40
2018-04-23T01:02:50.480Z,38.60
2018-04-23T01:03:22.105Z,38.60
2018-04-23T01:03:53.733Z,38.60
2018-04-23T01:04:25.360Z,38.60
2018-04-23T01:04:57.000Z,38.70
2018-04-23T01:05:28.657Z,38.90
2018-04-23T01:06:00.291Z,39.00
2018-04-23T01:06:31.912Z,39.40
2018-04-23T01:07:03.563Z,40.00
2018-04-23T01:07:35.183Z,40.10
2018-04-23T01:08:06.815Z,40.20
2018-04-23T01:08:38.445Z,40.40
2018-04-23T01:09:10.070Z,40.70
2018-04-23T01:09:41.716Z,41.00
2018-04-23T01:10:13.369Z,41.20
2018-04-23T01:10:45.024Z,41.40
2018-04-23T01:11:16.639Z,42.10
2018-04-23T01:11:48.264Z,42.40
2018-04-23T01:12:19.931Z,42.60
2018-04-23T01:12:51.587Z,42.80
2018-04-23T01:13:23.209Z,42.80
2018-04-23T01:13:54.811Z,42.80
2018-04-23T01:14:26.415Z,43.30
2018-04-23T01:14:58.069Z,43.50
2018-04-23T01:15:29.711Z,43.30
2018-04-23T01:16:01.377Z,43.60
2018-04-23T01:16:32.991Z,43.60
2018-04-23T01:17:04.641Z,44.00
2018-04-23T01:17:36.247Z,44.00
2018-04-23T01:18:07.885Z,44.20
2018-04-23T01:18:39.523Z,44.40
2018-04-23T01:19:11.154Z,44.80
2018-04-23T01:19:42.882Z,45.00
2018-04-23T01:20:14.511Z,45.00
2018-04-23T01:20:46.128Z,44.90
2018-04-23T01:21:17.763Z,44.90
2018-04-23T01:21:49.397Z,44.80
2018-04-23T01:22:21.040Z,44.90
2018-04-23T01:22:52.680Z,46.00
2018-04-23T01:23:24.316Z,46.30
2018-04-23T01:23:55.931Z,46.40
2018-04-23T01:24:27.555Z,46.30
2018-04-23T01:24:59.191Z,46.30
2018-04-23T01:25:30.808Z,46.50
2018-04-23T01:26:02.464Z,46.40
2018-04-23T01:26:34.080Z,46.40
2018-04-23T01:27:05.706Z,46.30
2018-04-23T01:27:37.318Z,46.20
2018-04-23T01:28:08.907Z,46.30
2018-04-23T01:28:40.551Z,46.40
2018-04-23T01:29:12.176Z,46.30
2018-04-23T01:29:43.788Z,46.70
2018-04-23T01:30:15.433Z,46.70
2018-04-23T01:30:47.039Z,46.60
2018-04-23T01:31:18.651Z,46.40
2018-04-23T01:31:50.295Z,46.30
2018-04-23T01:32:21.915Z,46.40
2018-04-23T01:32:53.555Z,46.40
2018-04-23T01:33:25.172Z,46.20
2018-04-23T01:33:56.799Z,46.00
2018-04-23T01:34:28.427Z,45.80
2018-04-23T01:35:00.045Z,45.70
2018-04-23T01:35:31.657Z,45.50
2018-04-23T01:36:03.300Z,45.40
2018-04-23T01:36:34.935Z,45.30
2018-04-23T01:37:06.565Z,45.10
2018-04-23T01:37:38.223Z,44.90
2018-04-23T01:38:09.868Z,44.90
2018-04-23T01:38:41.514Z,44.80
2018-04-23T01:39:13.123Z,44.70
2018-04-23T01:49:34.761Z,45.30
2018-04-23T01:50:06.401Z,45.70
2018-04-23T01:50:38.017Z,45.60
2018-04-23T01:51:09.645Z,45.60
2018-04-23T01:51:41.283Z,45.60
2018-04-23T01:52:13.724Z,45.50
2018-04-23T01:52:45.355Z,45.70
2018-04-23T01:53:16.992Z,46.00
2018-04-23T01:53:48.616Z,46.10
2018-04-23T01:54:20.243Z,46.50
2018-04-23T01:54:51.867Z,46.70
2018-04-23T01:55:24.239Z,46.70
2018-04-23T01:55:55.851Z,46.80
2018-04-23T01:56:27.481Z,47.10
2018-04-23T01:56:59.127Z,47.10
2018-04-23T01:57:30.740Z,47.20
2018-04-23T01:58:02.384Z,47.10
2018-04-23T01:58:33.995Z,47.50
2018-04-23T01:59:05.623Z,47.80
2018-04-23T01:59:37.255Z,47.80
2018-04-23T02:00:08.891Z,47.70
2018-04-23T02:00:40.507Z,47.80
2018-04-23T02:01:12.145Z,47.80
2018-04-23T02:01:43.780Z,48.00
2018-04-23T02:02:15.406Z,48.00
2018-04-23T02:02:47.095Z,47.80
2018-04-23T02:03:18.769Z,47.40
2018-04-23T02:03:50.397Z,47.20
2018-04-23T02:04:21.999Z,47.00
2018-04-23T02:04:53.632Z,46.90
2018-04-23T02:05:25.269Z,46.70
2018-04-23T02:05:56.879Z,46.70
2018-04-23T02:06:28.497Z,46.60
2018-04-23T02:07:00.135Z,46.50
2018-04-23T02:07:31.759Z,46.40
2018-04-23T02:08:03.406Z,46.30
2018-04-23T02:08:35.049Z,46.60
2018-04-23T02:09:06.675Z,47.10
2018-04-23T02:09:38.297Z,47.10
2018-04-23T02:10:09.935Z,47.10
2018-04-23T02:10:41.593Z,46.80
2018-04-23T02:11:13.232Z,46.80
2018-04-23T02:11:44.841Z,46.80
2018-04-23T02:12:16.449Z,46.80
2018-04-23T02:12:48.089Z,46.90
2018-04-23T02:13:19.727Z,47.10
2018-04-23T02:13:51.375Z,46.90
2018-04-23T02:14:23.003Z,47.00
2018-04-23T02:14:54.631Z,46.90
2018-04-23T02:15:26.245Z,46.70
2018-04-23T02:15:57.859Z,46.70
2018-04-23T02:16:29.493Z,46.60
2018-04-23T02:17:01.110Z,46.60
2018-04-23T02:17:32.729Z,46.30
2018-04-23T02:18:04.357Z,46.30
2018-04-23T02:18:35.958Z,46.10
2018-04-23T02:19:07.575Z,45.80
2018-04-23T02:19:39.205Z,45.40
2018-04-23T02:20:10.817Z,45.20
2018-04-23T02:20:42.443Z,44.90
2018-04-23T02:21:14.091Z,44.80
2018-04-23T02:21:45.727Z,44.80
2018-04-23T02:22:17.338Z,45.00
2018-04-23T02:22:48.962Z,45.00
2018-04-23T02:23:20.604Z,45.10
2018-04-23T02:23:52.247Z,45.00
2018-04-23T02:24:23.871Z,45.00
2018-04-23T02:24:55.501Z,45.10
2018-04-23T02:25:27.136Z,45.60
2018-04-23T02:25:58.813Z,46.10
2018-04-23T02:26:30.451Z,46.00
2018-04-23T02:27:02.077Z,46.30
2018-04-23T02:27:33.707Z,46.20
2018-04-23T02:28:05.355Z,46.30
2018-04-23T02:28:37.017Z,46.50
2018-04-23T02:29:08.647Z,46.30
2018-04-23T02:29:40.279Z,46.20
2018-04-23T02:30:11.884Z,46.30
2018-04-23T02:30:43.514Z,46.20
2018-04-23T02:31:15.123Z,46.30
2018-04-23T02:31:46.799Z,46.60
2018-04-23T02:32:18.413Z,46.60
2018-04-23T02:32:50.024Z,46.60
2018-04-23T02:33:21.635Z,46.30
2018-04-23T02:33:53.299Z,46.20
2018-04-23T02:34:24.926Z,46.20
2018-04-23T02:34:56.570Z,46.10
2018-04-23T02:35:28.201Z,46.30
2018-04-23T02:35:59.837Z,46.30
2018-04-23T02:36:31.469Z,46.40
2018-04-23T02:37:03.111Z,46.40
2018-04-23T02:37:34.742Z,46.70
2018-04-23T02:38:06.393Z,46.80
2018-04-23T02:38:38.031Z,46.70
2018-04-23T02:39:09.679Z,46.70
2018-04-23T02:39:41.327Z,46.90
2018-04-23T02:40:12.964Z,47.00
2018-04-23T02:40:44.603Z,47.00
2018-04-23T02:41:16.267Z,46.80
2018-04-23T02:41:47.890Z,47.00
2018-04-23T02:42:19.515Z,47.70
2018-04-23T02:42:51.157Z,47.60
2018-04-23T02:43:22.781Z,47.50
2018-04-23T02:43:54.406Z,47.50
2018-04-23T02:44:26.021Z,47.20
2018-04-23T02:44:57.665Z,47.80
2018-04-23T02:45:29.293Z,48.00
2018-04-23T02:46:00.923Z,48.00
2018-04-23T02:46:32.526Z,48.10
2018-04-23T02:47:04.155Z,48.40
2018-04-23T02:47:35.772Z,48.30
2018-04-23T02:48:07.415Z,48.50
2018-04-23T02:48:39.407Z,48.30
2018-04-23T02:49:11.017Z,48.40
2018-04-23T02:49:42.655Z,48.30
2018-04-23T02:50:14.272Z,48.40
2018-04-23T02:50:45.928Z,48.00
2018-04-23T02:51:17.554Z,48.30
2018-04-23T02:51:49.185Z,48.70
2018-04-23T02:52:20.814Z,49.20
2018-04-23T02:52:52.455Z,49.50
2018-04-23T02:53:24.096Z,49.50
2018-04-23T02:53:55.770Z,49.70
2018-04-23T02:54:27.383Z,49.60
2018-04-23T02:54:59.015Z,49.30
2018-04-23T02:55:30.645Z,49.30
2018-04-23T02:56:02.291Z,49.40
2018-04-23T02:56:33.905Z,49.60
2018-04-23T02:57:05.535Z,49.70
2018-04-23T02:57:37.177Z,49.80
2018-04-23T02:58:08.809Z,50.20
2018-04-23T02:58:40.446Z,50.10
2018-04-23T02:59:12.096Z,50.20
2018-04-23T02:59:43.739Z,50.20
2018-04-23T03:00:15.363Z,50.80
2018-04-23T03:00:46.988Z,50.80
2018-04-23T03:01:18.606Z,50.70
2018-04-23T03:01:50.247Z,50.40
2018-04-23T03:02:21.856Z,50.10
2018-04-23T03:02:53.492Z,50.00
2018-04-23T03:03:25.127Z,50.00
2018-04-23T03:03:56.805Z,49.80
2018-04-23T03:04:28.435Z,50.00
2018-04-23T03:05:00.070Z,50.30
2018-04-23T03:05:31.704Z,50.40
2018-04-23T03:06:03.367Z,50.70
2018-04-23T03:06:34.987Z,50.80
2018-04-23T03:07:06.613Z,51.20
2018-04-23T03:07:38.255Z,51.20
2018-04-23T03:08:09.861Z,51.00
2018-04-23T03:08:41.492Z,50.70
2018-04-23T03:09:13.103Z,51.20
2018-04-23T03:09:44.723Z,51.20
2018-04-23T03:10:16.347Z,51.50
2018-04-23T03:10:47.983Z,51.40
2018-04-23T03:11:19.615Z,51.40
2018-04-23T03:11:51.234Z,51.50
2018-04-23T03:12:22.867Z,51.50
2018-04-23T03:12:54.501Z,51.90
2018-04-23T03:13:26.123Z,52.00
2018-04-23T03:13:57.801Z,51.80
2018-04-23T03:14:29.405Z,52.00
2018-04-23T03:15:01.031Z,51.90
2018-04-23T03:15:32.672Z,52.10
2018-04-23T03:16:04.333Z,52.10
2018-04-23T03:16:35.988Z,52.10
2018-04-23T03:17:07.659Z,52.70
2018-04-23T03:17:39.299Z,52.90
2018-04-23T03:18:10.913Z,52.50
2018-04-23T03:18:42.577Z,52.20
2018-04-23T03:19:15.182Z,52.60
2018-04-23T03:19:46.831Z,52.60
2018-04-23T03:20:18.457Z,52.40
2018-04-23T03:20:50.090Z,52.50
2018-04-23T03:21:21.725Z,52.60
2018-04-23T03:21:53.354Z,52.70
2018-04-23T03:22:24.979Z,53.10
2018-04-23T03:22:56.609Z,53.30
2018-04-23T03:23:28.245Z,53.20
2018-04-23T03:23:59.871Z,53.20
2018-04-23T03:24:31.498Z,53.30
2018-04-23T03:25:03.199Z,52.60
2018-04-23T03:25:34.813Z,52.40
2018-04-23T03:26:06.443Z,53.30
2018-04-23T03:26:38.074Z,52.60
2018-04-23T03:27:09.691Z,52.80
2018-04-23T03:27:41.327Z,53.10
2018-04-23T03:28:12.943Z,53.40
2018-04-23T03:28:44.576Z,53.40
2018-04-23T03:29:16.207Z,53.60
2018-04-23T03:29:47.863Z,53.40
2018-04-23T03:30:19.501Z,53.40
2018-04-23T03:30:51.135Z,53.50
2018-04-23T03:31:22.783Z,53.60
2018-04-23T03:31:54.408Z,53.70
2018-04-23T03:32:26.060Z,53.60
2018-04-23T03:32:57.669Z,53.70
2018-04-23T03:33:29.293Z,53.90
2018-04-23T03:34:00.921Z,53.90
2018-04-23T03:34:32.536Z,54.10
2018-04-23T03:35:04.173Z,54.10
2018-04-23T03:35:35.785Z,53.90
2018-04-23T03:36:07.427Z,54.10
2018-04-23T03:36:39.056Z,54.20
2018-04-23T03:37:10.730Z,54.30
2018-04-23T03:37:42.323Z,54.20
2018-04-23T03:38:13.925Z,54.80
2018-04-23T03:38:45.540Z,54.70
2018-04-23T03:39:17.169Z,55.30
2018-04-23T03:39:48.794Z,55.40
2018-04-23T03:40:20.433Z,55.90
2018-04-23T03:40:52.047Z,55.50
2018-04-23T03:41:23.694Z,55.40
2018-04-23T03:41:55.339Z,55.30
2018-04-23T03:42:26.996Z,55.00
2018-04-23T03:42:58.607Z,54.70
2018-04-23T03:43:30.227Z,55.20
2018-04-23T03:44:01.866Z,56.10
2018-04-23T03:44:33.481Z,56.20
2018-04-23T03:45:05.185Z,56.10
2018-04-23T03:45:36.831Z,56.00
2018-04-23T03:46:08.458Z,55.80
2018-04-23T03:46:40.117Z,55.80
2018-04-23T03:47:11.737Z,55.70
2018-04-23T03:47:43.367Z,56.50
2018-04-23T03:48:14.992Z,57.80
2018-04-23T03:48:46.603Z,58.10
2018-04-23T03:49:18.216Z,57.90
2018-04-23T03:49:49.850Z,57.70
2018-04-23T03:50:21.497Z,57.60
2018-04-23T03:50:53.131Z,57.60
2018-04-23T03:51:24.763Z,57.50
2018-04-23T03:51:56.371Z,57.50
2018-04-23T03:52:27.975Z,57.50
2018-04-23T03:52:59.583Z,57.60
2018-04-23T03:53:31.211Z,58.30
2018-04-23T03:54:02.843Z,58.50
2018-04-23T03:54:34.473Z,58.30
2018-04-23T03:55:06.093Z,58.70
2018-04-23T03:55:37.703Z,59.00
2018-04-23T03:56:09.319Z,58.90
2018-04-23T03:56:40.925Z,59.20
2018-04-23T03:57:12.553Z,59.10
2018-04-23T03:57:44.195Z,59.10
2018-04-23T03:58:15.819Z,59.00
2018-04-23T03:58:47.451Z,58.90
2018-04-23T03:59:19.075Z,59.40
2018-04-23T03:59:50.685Z,59.90
2018-04-23T04:00:22.315Z,60.40
2018-04-23T04:00:53.939Z,60.60
2018-04-23T04:01:25.572Z,60.90
2018-04-23T04:01:57.204Z,60.60
2018-04-23T04:02:28.819Z,60.40
2018-04-23T04:03:00.452Z,60.20
2018-04-23T04:03:32.093Z,60.20
2018-04-23T04:04:03.771Z,60.30
2018-04-23T04:04:35.417Z,60.60
2018-04-23T04:05:07.727Z,60.40
2018-04-23T04:05:39.355Z,60.20
2018-04-23T04:06:10.976Z,60.00
2018-04-23T04:06:42.609Z,60.40
2018-04-23T04:07:14.263Z,60.50
2018-04-23T04:07:45.937Z,60.60
2018-04-23T04:08:17.563Z,60.80
2018-04-23T04:08:49.203Z,60.80
2018-04-23T04:09:20.839Z,60.50
2018-04-23T04:09:52.492Z,60.50
2018-04-23T04:10:24.124Z,60.40
2018-04-23T04:10:55.741Z,60.40
2018-04-23T04:11:27.327Z,60.80
2018-04-23T04:12:17.465Z,60.90
2018-04-23T04:13:07.740Z,60.60
2018-04-23T04:13:57.741Z,60.80
2018-04-23T04:14:48.091Z,61.00
2018-04-23T04:15:39.015Z,61.60
2018-04-23T04:16:29.175Z,61.60
2018-04-23T04:17:00.797Z,61.30
2018-04-23T04:18:59.386Z,61.30
2018-04-23T04:19:31.029Z,61.60
2018-04-23T04:20:02.970Z,61.80
2018-04-23T04:20:34.591Z,61.90
2018-04-23T04:21:06.202Z,61.90
2018-04-23T04:21:37.825Z,62.10
2018-04-23T04:22:09.447Z,62.10
2018-04-23T04:22:41.081Z,62.30
2018-04-23T04:23:12.723Z,62.20
2018-04-23T04:23:44.337Z,61.90
2018-04-23T04:24:15.952Z,61.50
2018-04-23T04:24:47.589Z,61.30
2018-04-23T04:25:19.279Z,60.80
2018-04-23T04:25:50.907Z,60.50
2018-04-23T04:26:22.520Z,60.20
2018-04-23T04:26:54.129Z,60.00
2018-04-23T04:27:25.759Z,59.80
2018-04-23T04:27:57.389Z,59.60
2018-04-23T04:28:29.041Z,59.30
2018-04-23T04:29:00.689Z,59.00
2018-04-23T04:29:32.309Z,58.80
2018-04-23T04:30:03.957Z,58.60
2018-04-23T04:30:35.593Z,58.40
2018-04-23T04:31:07.327Z,58.40
2018-04-23T04:31:38.949Z,58.40
2018-04-23T04:32:10.574Z,58.30
2018-04-23T04:32:42.219Z,57.90
2018-04-23T04:33:13.863Z,57.60
2018-04-23T04:33:45.497Z,57.30
2018-04-23T04:34:17.114Z,57.20
2018-04-23T04:34:48.729Z,57.10
2018-04-23T04:35:20.359Z,57.00
2018-04-23T04:35:51.971Z,56.90
2018-04-23T04:36:23.607Z,56.70
2018-04-23T04:36:55.241Z,56.60
2018-04-23T04:37:26.857Z,56.70
2018-04-23T04:37:58.489Z,56.70
2018-04-23T04:38:30.099Z,56.40
2018-04-23T04:39:01.726Z,56.20
2018-04-23T04:39:33.368Z,56.00
2018-04-23T04:40:04.973Z,55.70
2018-04-23T04:40:36.901Z,55.70
2018-04-23T04:41:08.537Z,55.60
2018-04-23T04:41:40.175Z,55.50
2018-04-23T04:42:11.809Z,55.50
2018-04-23T04:42:43.443Z,55.40
2018-04-23T04:43:15.116Z,55.30
2018-04-23T04:43:46.739Z,55.10
2018-04-23T04:44:18.356Z,54.60
2018-04-23T04:44:50.013Z,54.60
2018-04-23T04:45:21.670Z,54.40
2018-04-23T04:45:53.282Z,54.10
2018-04-23T04:46:24.923Z,53.90
2018-04-23T04:46:56.572Z,53.80
2018-04-23T04:47:28.220Z,53.30
2018-04-23T04:47:59.839Z,53.20
2018-04-23T04:48:31.463Z,52.90
2018-04-23T04:49:03.098Z,52.60
2018-04-23T04:49:34.727Z,53.20
2018-04-23T04:50:06.336Z,52.90
2018-04-23T04:50:37.943Z,52.50
2018-04-23T04:51:09.555Z,52.30
2018-04-23T04:51:41.192Z,52.10
2018-04-23T04:52:12.846Z,51.90
2018-04-23T04:52:44.464Z,51.70
2018-04-23T04:53:16.125Z,51.50
2018-04-23T04:53:47.757Z,51.30
2018-04-23T04:54:19.409Z,51.20
2018-04-23T04:54:51.046Z,51.20
2018-04-23T04:55:22.683Z,51.10
2018-04-23T04:55:54.307Z,50.90
2018-04-23T04:56:25.971Z,50.60
2018-04-23T04:56:57.623Z,50.30
2018-04-23T04:57:29.234Z,50.20
2018-04-23T04:58:00.855Z,50.00
2018-04-23T04:58:32.475Z,49.70
2018-04-23T04:59:04.117Z,49.50
2018-04-23T04:59:35.743Z,49.20
2018-04-23T05:00:07.395Z,49.10
2018-04-23T05:00:39.048Z,48.60
2018-04-23T05:01:10.681Z,47.70
2018-04-23T05:01:42.319Z,47.80
2018-04-23T05:02:14.807Z,47.80
2018-04-23T05:02:46.443Z,47.60
2018-04-23T05:03:18.069Z,47.20
2018-04-23T05:03:49.705Z,46.90
2018-04-23T05:04:21.312Z,46.80
2018-04-23T05:04:52.935Z,46.60
2018-04-23T05:05:24.551Z,46.50
2018-04-23T05:05:56.184Z,46.10
2018-04-23T05:06:27.789Z,45.80
2018-04-23T05:06:59.419Z,44.70
2018-04-23T05:07:31.027Z,43.30
2018-04-23T05:08:02.661Z,42.60
2018-04-23T05:08:34.285Z,42.20
2018-04-23T05:09:05.928Z,41.70
2018-04-23T05:09:37.563Z,41.40
2018-04-23T05:10:09.227Z,40.70
2018-04-23T05:10:40.860Z,40.10
2018-04-23T05:11:12.493Z,39.70
2018-04-23T05:11:44.131Z,38.10
2018-04-23T05:12:16.033Z,37.70
2018-04-23T05:12:47.643Z,36.60
2018-04-23T05:13:19.293Z,35.70
2018-04-23T05:13:50.914Z,34.40
2018-04-23T05:14:22.533Z,33.80
2018-04-23T05:14:54.159Z,32.70
2018-04-23T05:15:25.777Z,32.70
2018-04-23T05:15:57.447Z,32.50
2018-04-23T05:16:29.863Z,32.10
2018-04-23T05:17:01.477Z,32.00
2018-04-23T05:17:33.114Z,31.70
2018-04-23T05:18:04.776Z,31.60
2018-04-23T05:18:36.395Z,31.40
2018-04-23T05:19:08.019Z,31.60
2018-04-23T05:19:39.682Z,32.00
2018-04-23T05:20:11.311Z,32.10
2018-04-23T05:20:42.947Z,32.40
2018-04-23T05:21:14.635Z,31.90
2018-04-23T05:21:46.291Z,33.30
2018-04-23T05:22:17.943Z,33.60
2018-04-23T05:22:49.581Z,33.90
2018-04-23T05:23:21.223Z,34.20
2018-04-23T05:23:52.989Z,34.10
2018-04-23T05:24:24.579Z,33.80
2018-04-23T05:24:56.199Z,33.80
2018-04-23T05:25:27.833Z,33.30
2018-04-23T05:25:59.471Z,33.50
2018-04-23T05:26:31.081Z,33.60
2018-04-23T05:27:03.443Z,33.20
2018-04-23T05:27:35.070Z,32.90
2018-04-23T05:28:06.691Z,33.20
2018-04-23T05:28:38.321Z,33.50
2018-04-23T05:29:09.948Z,33.50
2018-04-23T05:29:41.575Z,33.50
2018-04-23T05:30:13.198Z,33.60
2018-04-23T05:30:44.828Z,33.60
2018-04-23T05:31:16.515Z,33.60
2018-04-23T05:31:48.151Z,33.60
2018-04-23T05:32:19.773Z,33.70
2018-04-23T05:32:51.402Z,33.30
2018-04-23T05:33:23.019Z,33.30
2018-04-23T05:33:54.645Z,33.60
2018-04-23T05:34:26.259Z,33.40
2018-04-23T05:34:57.911Z,33.30
2018-04-23T05:35:29.539Z,33.40
2018-04-23T05:36:01.149Z,32.80
2018-04-23T05:36:32.761Z,32.70
2018-04-23T05:37:04.405Z,32.40
2018-04-23T05:37:36.061Z,31.60
2018-04-23T05:38:07.680Z,30.10
2018-04-23T05:38:39.289Z,28.00
2018-04-23T05:39:10.920Z,28.50
2018-04-23T05:39:42.553Z,28.30
2018-04-23T05:40:14.172Z,28.40
2018-04-23T05:40:45.793Z,28.30
2018-04-23T05:41:17.432Z,26.90
2018-04-23T05:41:49.047Z,25.80
2018-04-23T05:42:20.675Z,25.70
2018-04-23T05:42:52.341Z,25.00
2018-04-23T05:43:23.961Z,24.60
2018-04-23T05:43:55.583Z,23.40
2018-04-23T05:44:27.212Z,22.70
2018-04-23T05:44:58.849Z,21.30
2018-04-23T05:45:30.531Z,20.70
2018-04-23T05:46:02.179Z,21.20
2018-04-23T05:46:33.811Z,21.40
2018-04-23T05:47:05.479Z,20.90
2018-04-23T05:47:37.132Z,21.20
2018-04-23T05:48:08.770Z,20.30
2018-04-23T05:48:40.419Z,20.20
2018-04-23T05:49:12.167Z,20.40
2018-04-23T05:49:43.805Z,19.80
2018-04-23T05:50:15.429Z,19.80
2018-04-23T05:50:47.044Z,20.00
2018-04-23T05:51:18.675Z,20.00
2018-04-23T05:51:50.304Z,18.90
2018-04-23T05:52:21.945Z,19.90
2018-04-23T05:52:53.885Z,19.90
2018-04-23T05:53:25.527Z,20.00
2018-04-23T05:53:57.159Z,20.30
2018-04-23T05:54:29.822Z,20.10
2018-04-23T05:55:01.454Z,20.60
2018-04-23T05:55:33.083Z,20.70
2018-04-23T05:56:04.711Z,20.30
2018-04-23T05:56:36.355Z,20.60
2018-04-23T05:57:07.958Z,20.40
2018-04-23T05:57:39.592Z,19.60
2018-04-23T05:58:11.225Z,19.60
2018-04-23T05:58:42.840Z,19.60
2018-04-23T05:59:14.467Z,19.50
2018-04-23T05:59:46.121Z,19.70
2018-04-23T06:00:17.759Z,19.70
2018-04-23T06:00:49.390Z,19.80
2018-04-23T06:01:21.010Z,19.20
2018-04-23T06:01:52.625Z,19.10
2018-04-23T06:02:24.268Z,18.80
2018-04-23T06:02:55.888Z,19.30
2018-04-23T06:03:27.552Z,19.00
2018-04-23T06:03:59.207Z,19.30
2018-04-23T06:04:30.828Z,19.40
2018-04-23T06:05:02.471Z,19.30
2018-04-23T06:05:34.104Z,19.30
2018-04-23T06:06:05.752Z,18.90
2018-04-23T06:06:37.380Z,19.00
2018-04-23T06:07:09.010Z,19.00
2018-04-23T06:07:40.630Z,18.30
2018-04-23T06:08:12.278Z,18.50
2018-04-23T06:08:43.971Z,18.40
2018-04-23T06:09:15.575Z,18.10
2018-04-23T06:09:47.218Z,18.30
2018-04-23T06:10:18.822Z,17.90
2018-04-23T06:10:50.443Z,17.60
2018-04-23T06:11:22.080Z,17.60
2018-04-23T06:11:53.732Z,17.10
2018-04-23T06:12:25.432Z,17.40
2018-04-23T06:12:57.054Z,17.10
2018-04-23T06:13:28.692Z,16.90
2018-04-23T06:14:00.317Z,16.80
2018-04-23T06:14:31.949Z,16.70
2018-04-23T06:15:03.622Z,16.30
2018-04-23T06:15:35.259Z,15.90
2018-04-23T06:16:06.904Z,15.80
2018-04-23T06:16:38.769Z,15.70
2018-04-23T06:17:10.419Z,15.60
2018-04-23T06:17:42.061Z,15.30
2018-04-23T06:18:13.680Z,15.20
2018-04-23T06:18:45.297Z,15.30
2018-04-23T06:19:16.949Z,14.30
2018-04-23T06:19:48.579Z,14.50
2018-04-23T06:20:20.213Z,14.30
2018-04-23T06:20:51.838Z,13.70
2018-04-23T06:21:23.440Z,13.80
2018-04-23T06:21:55.063Z,13.60
2018-04-23T06:22:26.701Z,13.20
2018-04-23T06:22:58.338Z,13.20
2018-04-23T06:23:29.963Z,12.60
2018-04-23T06:24:01.596Z,13.10
2018-04-23T06:24:33.251Z,12.80
2018-04-23T06:25:04.879Z,12.20
2018-04-23T06:25:36.537Z,13.00
2018-04-23T06:26:08.187Z,13.40
2018-04-23T06:26:39.829Z,12.80
2018-04-23T06:27:11.435Z,12.10
2018-04-23T06:27:43.059Z,11.30
2018-04-23T06:28:14.715Z,10.90
2018-04-23T06:28:46.323Z,10.80
2018-04-23T06:29:17.958Z,10.90
2018-04-23T06:29:49.591Z,10.70
2018-04-23T06:30:21.217Z,9.80
2018-04-23T06:30:52.905Z,10.30
2018-04-23T06:31:24.504Z,9.90
2018-04-23T06:31:56.130Z,9.00
2018-04-23T06:32:27.753Z,9.20
2018-04-23T06:32:59.369Z,7.90
2018-04-23T06:33:31.008Z,8.60
2018-04-23T06:34:02.631Z,8.10
2018-04-23T06:34:34.243Z,10.90
2018-04-23T06:35:05.883Z,10.60
2018-04-23T06:35:37.499Z,9.90
2018-04-23T06:36:09.108Z,9.10
2018-04-23T06:36:40.738Z,9.00
2018-04-23T06:37:12.367Z,8.40
2018-04-23T06:37:44.004Z,8.00
2018-04-23T06:38:15.629Z,7.30
2018-04-23T06:38:47.247Z,7.20
2018-04-23T06:39:18.890Z,7.30
2018-04-23T06:39:50.502Z,6.00
2018-04-23T06:40:22.177Z,7.60
2018-04-23T06:40:53.759Z,7.40
2018-04-23T06:41:25.380Z,7.10
2018-04-23T06:41:56.988Z,7.20
2018-04-23T06:42:28.583Z,7.90
2018-04-23T06:43:00.203Z,6.70
2018-04-23T06:43:31.811Z,7.00
2018-04-23T06:44:03.439Z,7.00
2018-04-23T06:44:35.100Z,6.20
2018-04-23T06:45:06.726Z,6.30
2018-04-23T06:45:38.397Z,5.50
2018-04-23T06:46:10.089Z,5.60
2018-04-23T06:46:41.673Z,5.30
2018-04-23T06:47:13.321Z,5.40
2018-04-23T06:47:44.941Z,5.60
2018-04-23T06:48:16.564Z,5.00
2018-04-23T06:48:48.177Z,5.00
2018-04-23T06:49:19.780Z,5.00
2018-04-23T06:49:51.392Z,5.00
2018-04-23T06:50:23.015Z,5.00
2018-04-23T06:50:54.627Z,5.00
2018-04-23T06:51:26.247Z,5.00
2018-04-23T06:51:57.861Z,5.00
2018-04-23T06:52:29.485Z,5.00
2018-04-23T06:53:01.105Z,5.00
2018-04-23T06:53:32.717Z,5.00
2018-04-23T06:54:04.336Z,5.00
2018-04-23T06:54:35.928Z,5.00
2018-04-23T06:55:07.546Z,5.00
2018-04-23T06:55:39.152Z,5.00
2018-04-23T06:56:10.795Z,5.00
2018-04-23T06:56:42.457Z,5.00
2018-04-23T06:57:14.067Z,5.00
2018-04-23T06:57:45.723Z,5.00
2018-04-23T06:58:17.337Z,5.00
2018-04-23T06:58:48.968Z,5.00
2018-04-23T06:59:20.631Z,5.00
2018-04-23T06:59:52.243Z,5.00
2018-04-23T07:00:23.883Z,5.00
2018-04-23T07:00:55.514Z,5.00
2018-04-23T07:01:27.152Z,5.00
2018-04-23T07:01:58.806Z,5.00